Time,TemperatureF,DewpointF,PressureIn,WindDirection,WindDirectionDegrees,WindSpeedMPH,WindSpeedGustMPH,Humidity,HourlyPrecipIn,Conditions,Clouds,dailyrainin,SolarRadiationWatts/m^2,SoftwareType,DateUTC
2013-02-27 00:12:00,67.0,-29.0,-100.00,ESE,103,28.0,52.0,0,0.00,,,0.00,0.000000,,2013-02-27 10:12:00,
2013-02-27 00:21:00,67.0,-29.0,-100.00,ESE,103,28.0,52.0,0,0.00,,,0.00,0.000000,,2013-02-27 10:21:00,
2013-02-27 00:32:00,67.0,-29.0,-100.00,ESE,103,28.0,52.0,0,0.00,,,0.00,0.000000,,2013-02-27 10:32:00,
2013-02-27 00:42:00,67.0,-29.0,-100.00,ESE,103,28.0,52.0,0,0.00,,,0.00,0.000000,,2013-02-27 10:42:00,
2013-02-27 00:52:00,67.0,-29.0,-100.00,NW,318,12.0,51.0,0,0.00,,,0.00,0.000000,,2013-02-27 10:52:00,
2013-02-27 01:22:00,67.0,-29.0,-100.00,NW,318,12.0,51.0,0,0.00,,,0.00,0.000000,,2013-02-27 11:22:00,
2013-02-27 01:32:00,67.0,-29.0,-100.00,NW,318,12.0,51.0,0,0.00,,,0.00,0.000000,,2013-02-27 11:32:00,
2013-02-27 01:41:00,67.0,-29.0,-100.00,NW,318,12.0,51.0,0,0.00,,,0.00,0.000000,,2013-02-27 11:41:00,
2013-02-27 01:52:00,65.0,-30.0,-100.00,East,98,29.0,53.0,0,0.00,,,0.00,0.000000,,2013-02-27 11:52:00,
2013-02-27 02:22:00,65.0,-30.0,-100.00,East,98,29.0,53.0,0,0.00,,,0.00,0.000000,,2013-02-27 12:22:00,
2013-02-27 02:32:00,65.0,-30.0,-100.00,East,98,29.0,53.0,0,0.00,,,0.00,0.000000,,2013-02-27 12:32:00,
2013-02-27 02:42:00,65.0,-30.0,-100.00,East,98,29.0,53.0,0,0.00,,,0.00,0.000000,,2013-02-27 12:42:00,
2013-02-27 02:52:00,67.0,-29.0,-100.00,NE,39,17.0,52.0,0,0.00,,,0.00,0.000000,,2013-02-27 12:52:00,
2013-02-27 03:22:00,67.0,-29.0,-100.00,NE,39,17.0,52.0,0,0.00,,,0.00,0.000000,,2013-02-27 13:22:00,
2013-02-27 03:32:00,67.0,-29.0,-100.00,NE,39,17.0,52.0,0,0.00,,,0.00,0.000000,,2013-02-27 13:32:00,
2013-02-27 03:42:00,67.0,-29.0,-100.00,NE,39,17.0,52.0,0,0.00,,,0.00,0.000000,,2013-02-27 13:42:00,
2013-02-27 03:52:00,66.0,-29.0,-100.00,SE,141,24.0,52.0,0,0.00,,,0.00,0.000000,,2013-02-27 13:52:00,
2013-02-27 04:21:00,66.0,-29.0,-100.00,SE,141,24.0,52.0,0,0.00,,,0.00,0.000000,,2013-02-27 14:21:00,
2013-02-27 04:31:00,66.0,-29.0,-100.00,SE,141,24.0,52.0,0,0.00,,,0.00,0.000000,,2013-02-27 14:31:00,
2013-02-27 04:42:00,66.0,-29.0,-100.00,SE,141,24.0,52.0,0,0.00,,,0.00,0.000000,,2013-02-27 14:42:00,
2013-02-27 05:12:00,66.0,-29.0,-100.00,ESE,103,33.0,50.0,0,0.00,,,0.00,0.000000,,2013-02-27 15:12:00,
2013-02-27 05:22:00,66.0,-29.0,-100.00,ESE,103,33.0,50.0,0,0.00,,,0.00,0.000000,,2013-02-27 15:22:00,
2013-02-27 05:32:00,66.0,-29.0,-100.00,ESE,103,33.0,50.0,0,0.00,,,0.00,0.000000,,2013-02-27 15:32:00,
2013-02-27 05:41:00,66.0,-29.0,-100.00,ESE,103,33.0,50.0,0,0.00,,,0.00,0.000000,,2013-02-27 15:41:00,
2013-02-27 05:51:00,66.0,-29.0,-100.00,ESE,103,33.0,50.0,0,0.00,,,0.00,0.000000,,2013-02-27 15:51:00,
2013-02-27 06:11:00,66.0,-29.0,-100.00,WSW,238,29.0,58.0,0,0.00,,,0.00,0.000000,,2013-02-27 16:11:00,
2013-02-27 06:22:00,66.0,-29.0,-100.00,WSW,238,29.0,58.0,0,0.00,,,0.00,0.000000,,2013-02-27 16:22:00,
2013-02-27 06:32:00,66.0,-29.0,-100.00,WSW,238,29.0,58.0,0,0.00,,,0.00,0.000000,,2013-02-27 16:32:00,
2013-02-27 06:42:00,66.0,-29.0,-100.00,WSW,238,29.0,58.0,0,0.00,,,0.00,0.000000,,2013-02-27 16:42:00,
2013-02-27 06:51:00,66.0,-29.0,-100.00,WSW,238,29.0,58.0,0,0.00,,,0.00,0.000000,,2013-02-27 16:51:00,
2013-02-27 06:52:00,66.0,-29.0,-100.00,SE,139,24.0,59.0,0,0.00,,,0.00,0.000000,,2013-02-27 16:52:00,
2013-02-27 07:21:00,66.0,-29.0,-100.00,SE,139,24.0,59.0,0,0.00,,,0.00,0.000000,,2013-02-27 17:21:00,
2013-02-27 07:32:00,66.0,-29.0,-100.00,SE,139,24.0,59.0,0,0.00,,,0.00,0.000000,,2013-02-27 17:32:00,
2013-02-27 07:41:00,66.0,-29.0,-100.00,SE,139,24.0,59.0,0,0.00,,,0.00,0.000000,,2013-02-27 17:41:00,
2013-02-27 08:11:00,65.0,-30.0,-100.00,East,95,33.0,52.0,0,0.00,,,-99.99,2.000000,,2013-02-27 18:11:00,
2013-02-27 08:22:00,65.0,-30.0,-100.00,East,95,33.0,52.0,0,0.00,,,-99.99,2.000000,,2013-02-27 18:22:00,
2013-02-27 08:32:00,65.0,-30.0,-100.00,East,95,33.0,52.0,0,0.00,,,-99.99,2.000000,,2013-02-27 18:32:00,
2013-02-27 08:42:00,65.0,-30.0,-100.00,East,95,33.0,52.0,0,0.00,,,-99.99,2.000000,,2013-02-27 18:42:00,
2013-02-27 08:51:00,65.0,-30.0,-100.00,East,95,33.0,52.0,0,0.00,,,-99.99,2.000000,,2013-02-27 18:51:00,
2013-02-27 09:21:00,68.0,-28.0,-100.00,East,93,26.0,51.0,0,0.00,,,0.00,153.000000,,2013-02-27 19:21:00,
2013-02-27 09:32:00,68.0,-28.0,-100.00,East,93,26.0,51.0,0,0.00,,,0.00,153.000000,,2013-02-27 19:32:00,
2013-02-27 09:42:00,68.0,-28.0,-100.00,East,93,26.0,51.0,0,0.00,,,0.00,153.000000,,2013-02-27 19:42:00,
2013-02-27 09:51:00,68.0,-28.0,-100.00,East,93,26.0,51.0,0,0.00,,,0.00,153.000000,,2013-02-27 19:51:00,
2013-02-27 09:52:00,71.0,-26.0,-100.00,NNE,33,23.0,43.0,0,0.00,,,0.00,464.000000,,2013-02-27 19:52:00,
2013-02-27 10:21:00,71.0,-26.0,-100.00,NNE,33,23.0,43.0,0,0.00,,,0.00,464.000000,,2013-02-27 20:21:00,
2013-02-27 10:31:00,71.0,-26.0,-100.00,NNE,33,23.0,43.0,0,0.00,,,0.00,464.000000,,2013-02-27 20:31:00,
2013-02-27 10:41:00,71.0,-26.0,-100.00,NNE,33,23.0,43.0,0,0.00,,,0.00,464.000000,,2013-02-27 20:41:00,
2013-02-27 11:11:00,74.0,-25.0,-100.00,WSW,237,22.0,53.0,0,0.00,,,-99.99,747.000000,,2013-02-27 21:11:00,
2013-02-27 11:21:00,74.0,-25.0,-100.00,WSW,237,22.0,53.0,0,0.00,,,-99.99,747.000000,,2013-02-27 21:21:00,
2013-02-27 11:31:00,74.0,-25.0,-100.00,WSW,237,22.0,53.0,0,0.00,,,-99.99,747.000000,,2013-02-27 21:31:00,
2013-02-27 11:41:00,74.0,-25.0,-100.00,WSW,237,22.0,53.0,0,0.00,,,-99.99,747.000000,,2013-02-27 21:41:00,
2013-02-27 11:51:00,74.0,-25.0,-100.00,WSW,237,22.0,53.0,0,0.00,,,-99.99,747.000000,,2013-02-27 21:51:00,
2013-02-27 12:11:00,74.0,-25.0,-100.00,SSW,204,28.0,41.0,0,0.00,,,0.00,969.000000,,2013-02-27 22:11:00,
2013-02-27 12:21:00,74.0,-25.0,-100.00,SSW,204,28.0,41.0,0,0.00,,,0.00,969.000000,,2013-02-27 22:21:00,
2013-02-27 12:31:00,74.0,-25.0,-100.00,SSW,204,28.0,41.0,0,0.00,,,0.00,969.000000,,2013-02-27 22:31:00,
2013-02-27 12:41:00,74.0,-25.0,-100.00,SSW,204,28.0,41.0,0,0.00,,,0.00,969.000000,,2013-02-27 22:41:00,
2013-02-27 12:51:00,74.0,-25.0,-100.00,SSW,204,28.0,41.0,0,0.00,,,0.00,969.000000,,2013-02-27 22:51:00,
2013-02-27 12:52:00,73.0,-25.0,-100.00,WSW,240,25.0,47.0,0,0.00,,,0.00,1120.000000,,2013-02-27 22:52:00,
2013-02-27 13:21:00,73.0,-25.0,-100.00,WSW,240,25.0,47.0,0,0.00,,,0.00,1120.000000,,2013-02-27 23:21:00,
2013-02-27 13:31:00,73.0,-25.0,-100.00,WSW,240,25.0,47.0,0,0.00,,,0.00,1120.000000,,2013-02-27 23:31:00,
2013-02-27 13:42:00,73.0,-25.0,-100.00,WSW,240,25.0,47.0,0,0.00,,,0.00,1120.000000,,2013-02-27 23:42:00,
2013-02-27 14:11:00,74.0,-25.0,-100.00,NW,310,22.0,43.0,0,0.00,,,0.00,1191.000000,,2013-02-28 00:11:00,
2013-02-27 14:21:00,74.0,-25.0,-100.00,NW,310,22.0,43.0,0,0.00,,,0.00,1191.000000,,2013-02-28 00:21:00,
2013-02-27 14:32:00,74.0,-25.0,-100.00,NW,310,22.0,43.0,0,0.00,,,0.00,1191.000000,,2013-02-28 00:32:00,
2013-02-27 14:42:00,74.0,-25.0,-100.00,NW,310,22.0,43.0,0,0.00,,,0.00,1191.000000,,2013-02-28 00:42:00,
2013-02-27 14:51:00,74.0,-25.0,-100.00,NW,310,22.0,43.0,0,0.00,,,0.00,1191.000000,,2013-02-28 00:51:00,
2013-02-27 15:21:00,73.0,-25.0,-100.00,ESE,103,27.0,42.0,0,0.00,,,0.00,1150.000000,,2013-02-28 01:21:00,
2013-02-27 15:31:00,73.0,-25.0,-100.00,ESE,103,27.0,42.0,0,0.00,,,0.00,1150.000000,,2013-02-28 01:31:00,
2013-02-27 15:41:00,73.0,-25.0,-100.00,ESE,103,27.0,42.0,0,0.00,,,0.00,1150.000000,,2013-02-28 01:41:00,
2013-02-27 15:51:00,73.0,-25.0,-100.00,ESE,103,27.0,42.0,0,0.00,,,0.00,1150.000000,,2013-02-28 01:51:00,
2013-02-27 16:11:00,72.0,-26.0,-100.00,SSE,165,26.0,45.0,0,0.00,,,0.00,1009.000000,,2013-02-28 02:11:00,
2013-02-27 16:22:00,72.0,-26.0,-100.00,SSE,165,26.0,45.0,0,0.00,,,0.00,1009.000000,,2013-02-28 02:22:00,
2013-02-27 16:31:00,72.0,-26.0,-100.00,SSE,165,26.0,45.0,0,0.00,,,0.00,1009.000000,,2013-02-28 02:31:00,
2013-02-27 16:41:00,72.0,-26.0,-100.00,SSE,165,26.0,45.0,0,0.00,,,0.00,1009.000000,,2013-02-28 02:41:00,
2013-02-27 16:51:00,72.0,-26.0,-100.00,SSE,165,26.0,45.0,0,0.00,,,0.00,1009.000000,,2013-02-28 02:51:00,
2013-02-27 17:21:00,71.0,-26.0,-100.00,NNE,33,25.0,40.0,0,0.00,,,0.00,795.000000,,2013-02-28 03:21:00,
2013-02-27 17:31:00,71.0,-26.0,-100.00,NNE,33,25.0,40.0,0,0.00,,,0.00,795.000000,,2013-02-28 03:31:00,
2013-02-27 17:41:00,71.0,-26.0,-100.00,NNE,33,25.0,40.0,0,0.00,,,0.00,795.000000,,2013-02-28 03:41:00,
2013-02-27 17:51:00,71.0,-26.0,-100.00,NNE,33,25.0,40.0,0,0.00,,,0.00,795.000000,,2013-02-28 03:51:00,
2013-02-27 18:11:00,70.0,-27.0,-100.00,West,270,25.0,40.0,0,0.00,,,0.00,534.000000,,2013-02-28 04:11:00,
2013-02-27 18:21:00,70.0,-27.0,-100.00,West,270,25.0,40.0,0,0.00,,,0.00,534.000000,,2013-02-28 04:21:00,
2013-02-27 18:31:00,70.0,-27.0,-100.00,West,270,25.0,40.0,0,0.00,,,0.00,534.000000,,2013-02-28 04:31:00,
2013-02-27 18:41:00,70.0,-27.0,-100.00,West,270,25.0,40.0,0,0.00,,,0.00,534.000000,,2013-02-28 04:41:00,
2013-02-27 18:51:00,70.0,-27.0,-100.00,West,270,25.0,40.0,0,0.00,,,0.00,534.000000,,2013-02-28 04:51:00,
2013-02-27 19:11:00,68.0,-28.0,-100.00,North,1,24.0,38.0,0,0.00,,,0.00,172.000000,,2013-02-28 05:11:00,
2013-02-27 19:22:00,68.0,-28.0,-100.00,North,1,24.0,38.0,0,0.00,,,0.00,172.000000,,2013-02-28 05:22:00,
2013-02-27 19:31:00,68.0,-28.0,-100.00,North,1,24.0,38.0,0,0.00,,,0.00,172.000000,,2013-02-28 05:31:00,
2013-02-27 19:42:00,68.0,-28.0,-100.00,North,1,24.0,38.0,0,0.00,,,0.00,172.000000,,2013-02-28 05:42:00,
2013-02-27 19:51:00,68.0,-28.0,-100.00,North,1,24.0,38.0,0,0.00,,,0.00,172.000000,,2013-02-28 05:51:00,
2013-02-27 20:11:00,66.0,-29.0,-100.00,ESE,102,24.0,44.0,0,0.00,,,0.00,11.000000,,2013-02-28 06:11:00,
2013-02-27 20:22:00,66.0,-29.0,-100.00,ESE,102,24.0,44.0,0,0.00,,,0.00,11.000000,,2013-02-28 06:22:00,
2013-02-27 20:32:00,66.0,-29.0,-100.00,ESE,102,24.0,44.0,0,0.00,,,0.00,11.000000,,2013-02-28 06:32:00,
2013-02-27 20:41:00,66.0,-29.0,-100.00,ESE,102,24.0,44.0,0,0.00,,,0.00,11.000000,,2013-02-28 06:41:00,
2013-02-27 20:51:00,66.0,-29.0,-100.00,ESE,102,24.0,44.0,0,0.00,,,0.00,11.000000,,2013-02-28 06:51:00,
2013-02-27 21:21:00,66.0,-29.0,-100.00,East,99,23.0,47.0,0,0.00,,,0.00,0.000000,,2013-02-28 07:21:00,
2013-02-27 21:31:00,66.0,-29.0,-100.00,East,99,23.0,47.0,0,0.00,,,0.00,0.000000,,2013-02-28 07:31:00,
2013-02-27 21:41:00,66.0,-29.0,-100.00,East,99,23.0,47.0,0,0.00,,,0.00,0.000000,,2013-02-28 07:41:00,
2013-02-27 21:51:00,66.0,-29.0,-100.00,East,99,23.0,47.0,0,0.00,,,0.00,0.000000,,2013-02-28 07:51:00,
2013-02-27 21:52:00,67.0,-29.0,-100.00,NW,308,24.0,44.0,0,0.00,,,0.00,0.000000,,2013-02-28 07:52:00,
2013-02-27 22:21:00,67.0,-29.0,-100.00,NW,308,24.0,44.0,0,0.00,,,0.00,0.000000,,2013-02-28 08:21:00,
2013-02-27 22:32:00,67.0,-29.0,-100.00,NW,308,24.0,44.0,0,0.00,,,0.00,0.000000,,2013-02-28 08:32:00,
2013-02-27 22:42:00,67.0,-29.0,-100.00,NW,308,24.0,44.0,0,0.00,,,0.00,0.000000,,2013-02-28 08:42:00,
2013-02-27 23:11:00,67.0,-29.0,-100.00,East,86,18.0,55.0,0,0.00,,,0.00,0.000000,,2013-02-28 09:11:00,
2013-02-27 23:21:00,67.0,-29.0,-100.00,East,86,18.0,55.0,0,0.00,,,0.00,0.000000,,2013-02-28 09:21:00,
2013-02-27 23:31:00,67.0,-29.0,-100.00,East,86,18.0,55.0,0,0.00,,,0.00,0.000000,,2013-02-28 09:31:00,
2013-02-27 23:41:00,67.0,-29.0,-100.00,East,86,18.0,55.0,0,0.00,,,0.00,0.000000,,2013-02-28 09:41:00,
2013-02-27 23:51:00,67.0,-29.0,-100.00,East,86,18.0,55.0,0,0.00,,,0.00,0.000000,,2013-02-28 09:51:00,